createdAt,value
2018-07-14T00:01:42.922Z,17.72
2018-07-14T00:04:12.460Z,17.70
2018-07-14T00:06:42.507Z,17.68
2018-07-14T00:09:13.472Z,17.58
2018-07-14T00:11:43.282Z,17.58
2018-07-14T00:14:13.965Z,17.55
2018-07-14T00:16:43.803Z,17.55
2018-07-14T00:19:14.391Z,17.53
2018-07-14T00:21:44.041Z,17.52
2018-07-14T00:24:13.144Z,17.52
2018-07-14T00:26:42.173Z,17.49
2018-07-14T00:29:12.382Z,17.46
2018-07-14T00:31:43.057Z,17.43
2018-07-14T00:34:12.219Z,17.40
2018-07-14T00:36:42.886Z,17.36
2018-07-14T00:52:06.917Z,17.34
2018-07-14T00:54:36.290Z,17.24
2018-07-14T00:57:06.975Z,17.18
2018-07-14T00:59:37.618Z,16.99
2018-07-14T01:02:08.507Z,16.81
2018-07-14T01:04:37.874Z,16.76
2018-07-14T01:07:07.180Z,16.77
2018-07-14T01:09:37.785Z,16.69
2018-07-14T01:12:07.840Z,16.61
2018-07-14T01:14:38.494Z,16.65
2018-07-14T01:17:08.524Z,16.65
2018-07-14T01:19:39.552Z,16.65
2018-07-14T01:22:10.625Z,16.63
2018-07-14T01:24:39.869Z,16.68
2018-07-14T01:27:10.238Z,16.69
2018-07-14T01:29:41.125Z,16.68
2018-07-14T01:32:11.586Z,16.68
2018-07-14T01:34:40.780Z,16.68
2018-07-14T01:37:11.445Z,16.66
2018-07-14T01:39:40.997Z,16.64
2018-07-14T01:42:10.070Z,16.61
2018-07-14T01:44:39.963Z,16.58
2018-07-14T01:47:09.335Z,16.59
2018-07-14T01:49:40.640Z,16.62
2018-07-14T01:52:11.275Z,16.62
2018-07-14T01:54:40.467Z,16.62
2018-07-14T01:57:10.604Z,16.53
2018-07-14T01:59:40.892Z,16.51
2018-07-14T02:02:11.812Z,16.50
2018-07-14T02:04:42.287Z,16.48
2018-07-14T02:07:12.657Z,16.46
2018-07-14T02:09:42.455Z,16.45
2018-07-14T02:12:11.511Z,16.42
2018-07-14T02:14:41.267Z,16.40
2018-07-14T02:17:10.520Z,16.39
2018-07-14T02:19:41.311Z,16.37
2018-07-14T02:22:11.898Z,16.33
2018-07-14T02:24:44.893Z,16.29
2018-07-14T02:27:13.958Z,16.26
2018-07-14T02:29:44.126Z,16.22
2018-07-14T02:32:14.623Z,16.18
2018-07-14T02:34:44.976Z,16.14
2018-07-14T02:37:14.035Z,16.13
2018-07-14T02:39:43.626Z,16.11
2018-07-14T02:42:12.873Z,16.08
2018-07-14T02:44:42.876Z,16.05
2018-07-14T02:47:12.591Z,16.00
2018-07-14T02:49:41.893Z,15.99
2018-07-14T02:52:11.949Z,15.98
2018-07-14T02:54:42.590Z,15.96
2018-07-14T02:57:12.112Z,15.93
2018-07-14T02:59:42.354Z,15.91
2018-07-14T03:02:11.376Z,15.89
2018-07-14T03:04:41.522Z,15.86
2018-07-14T03:07:11.349Z,15.86
2018-07-14T03:09:40.440Z,15.87
2018-07-14T03:12:09.530Z,15.83
2018-07-14T03:14:40.611Z,15.80
2018-07-14T03:17:10.663Z,15.79
2018-07-14T03:19:41.077Z,15.74
2018-07-14T03:22:10.596Z,15.71
2018-07-14T03:24:40.941Z,15.68
2018-07-14T03:27:11.300Z,15.69
2018-07-14T03:29:41.966Z,15.67
2018-07-14T03:32:12.329Z,15.68
2018-07-14T03:34:43.483Z,15.68
2018-07-14T03:37:13.000Z,15.68
2018-07-14T03:39:43.713Z,15.70
2018-07-14T03:42:14.348Z,15.71
2018-07-14T03:44:45.181Z,15.71
2018-07-14T03:47:16.159Z,15.72
2018-07-14T03:49:45.229Z,15.63
2018-07-14T03:52:14.549Z,15.63
2018-07-14T03:54:44.706Z,15.59
2018-07-14T03:57:15.436Z,15.56
2018-07-14T03:59:44.876Z,15.59
2018-07-14T04:02:15.225Z,15.57
2018-07-14T04:04:45.557Z,15.53
2018-07-14T04:07:16.524Z,15.54
2018-07-14T04:09:47.241Z,15.55
2018-07-14T04:12:16.519Z,15.60
2018-07-14T04:14:47.648Z,15.64
2018-07-14T04:17:16.914Z,15.67
2018-07-14T04:19:45.937Z,15.75
2018-07-14T04:22:15.221Z,15.82
2018-07-14T04:24:45.620Z,15.86
2018-07-14T04:27:16.537Z,15.89
2018-07-14T04:29:47.160Z,15.94
2018-07-14T04:32:17.451Z,16.01
2018-07-14T04:34:47.988Z,16.02
2018-07-14T04:37:18.849Z,16.02
2018-07-14T04:39:48.213Z,15.97
2018-07-14T04:42:18.701Z,16.00
2018-07-14T04:44:49.497Z,15.95
2018-07-14T04:47:20.244Z,15.97
2018-07-14T04:49:49.515Z,15.97
2018-07-14T04:52:19.559Z,16.05
2018-07-14T04:54:48.643Z,16.15
2018-07-14T04:57:18.036Z,16.22
2018-07-14T04:59:47.354Z,16.32
2018-07-14T05:02:16.401Z,16.40
2018-07-14T05:05:16.907Z,16.47
2018-07-14T05:07:47.542Z,16.48
2018-07-14T05:10:18.292Z,16.55
2018-07-14T05:12:49.234Z,16.62
2018-07-14T05:15:19.966Z,16.66
2018-07-14T05:17:51.488Z,16.70
2018-07-14T05:20:21.215Z,16.74
2018-07-14T05:22:50.517Z,16.78
2018-07-14T05:25:19.716Z,16.83
2018-07-14T05:27:50.083Z,16.84
2018-07-14T05:30:20.239Z,16.86
2018-07-14T05:32:49.865Z,16.88
2018-07-14T05:35:20.644Z,16.91
2018-07-14T05:37:50.694Z,16.97
2018-07-14T05:40:21.218Z,17.01
2018-07-14T05:42:51.964Z,17.10
2018-07-14T05:45:22.234Z,17.16
2018-07-14T05:47:53.227Z,17.18
2018-07-14T05:50:22.716Z,17.24
2018-07-14T05:52:52.916Z,17.31
2018-07-14T05:55:54.546Z,17.41
2018-07-14T05:58:23.844Z,17.53
2018-07-14T06:00:53.739Z,17.62
2018-07-14T06:03:24.443Z,17.70
2018-07-14T06:05:54.089Z,17.78
2018-07-14T06:08:24.268Z,17.85
2018-07-14T06:10:54.813Z,17.95
2018-07-14T06:13:25.846Z,18.07
2018-07-14T06:15:56.100Z,18.14
2018-07-14T06:18:25.230Z,18.24
2018-07-14T06:20:55.162Z,18.32
2018-07-14T06:23:25.071Z,18.36
2018-07-14T06:25:56.070Z,18.40
2018-07-14T06:28:25.510Z,18.45
2018-07-14T06:30:55.958Z,18.51
2018-07-14T06:33:26.209Z,18.54
2018-07-14T06:35:56.685Z,18.55
2018-07-14T06:38:27.100Z,18.66
2018-07-14T06:40:57.084Z,18.69
2018-07-14T06:43:26.340Z,18.70
2018-07-14T06:45:55.525Z,18.75
2018-07-14T06:48:25.791Z,18.86
2018-07-14T06:50:56.426Z,18.95
2018-07-14T06:53:25.725Z,19.12
2018-07-14T06:55:55.671Z,19.24
2018-07-14T06:58:25.149Z,19.40
2018-07-14T07:00:55.314Z,19.55
2018-07-14T07:03:24.431Z,19.68
2018-07-14T07:05:53.826Z,19.85
2018-07-14T07:08:23.372Z,19.95
2018-07-14T07:10:53.880Z,20.10
2018-07-14T07:13:23.422Z,20.28
2018-07-14T07:15:53.985Z,20.42
2018-07-14T07:18:23.050Z,20.54
2018-07-14T07:20:53.830Z,20.58
2018-07-14T07:23:24.913Z,20.64
2018-07-14T07:25:55.556Z,20.65
2018-07-14T07:28:24.584Z,20.64
2018-07-14T07:30:54.002Z,20.66
2018-07-14T07:33:23.578Z,20.66
2018-07-14T07:35:53.818Z,20.66
2018-07-14T07:38:23.139Z,20.67
2018-07-14T07:40:54.420Z,20.65
2018-07-14T07:43:24.907Z,20.70
2018-07-14T07:45:55.204Z,20.81
2018-07-14T07:48:24.681Z,20.93
2018-07-14T07:50:53.750Z,21.08
2018-07-14T07:53:23.888Z,21.13
2018-07-14T07:55:55.468Z,21.15
2018-07-14T07:58:24.587Z,21.27
2018-07-14T08:00:54.753Z,21.41
2018-07-14T08:03:23.819Z,21.59
2018-07-14T08:05:54.389Z,21.71
2018-07-14T08:08:23.978Z,21.87
2018-07-14T08:10:53.097Z,22.03
2018-07-14T08:13:23.021Z,22.19
2018-07-14T08:15:52.256Z,22.29
2018-07-14T08:18:21.587Z,22.39
2018-07-14T08:20:51.611Z,22.54
2018-07-14T08:23:22.581Z,22.82
2018-07-14T08:25:51.789Z,23.02
2018-07-14T08:28:22.081Z,23.10
2018-07-14T08:30:51.631Z,23.15
2018-07-14T08:33:22.283Z,23.14
2018-07-14T08:35:52.710Z,23.13
2018-07-14T08:38:22.569Z,23.08
2018-07-14T08:40:52.493Z,23.19
2018-07-14T08:43:21.552Z,23.41
2018-07-14T08:45:51.539Z,23.67
2018-07-14T08:48:22.285Z,23.96
2018-07-14T08:50:51.705Z,24.03
2018-07-14T08:53:21.185Z,24.02
2018-07-14T08:55:51.956Z,24.01
2018-07-14T08:58:26.097Z,24.08
2018-07-14T09:00:56.030Z,24.15
2018-07-14T09:03:27.084Z,24.23
2018-07-14T09:05:58.020Z,24.23
2018-07-14T09:08:29.342Z,24.27
2018-07-14T09:10:59.524Z,24.32
2018-07-14T09:13:30.278Z,24.37
2018-07-14T09:16:00.678Z,24.40
2018-07-14T09:18:31.115Z,24.45
2018-07-14T09:21:01.335Z,24.47
2018-07-14T09:23:32.019Z,24.51
2018-07-14T09:26:01.584Z,24.59
2018-07-14T09:28:31.977Z,24.54
2018-07-14T09:31:01.859Z,24.58
2018-07-14T09:33:32.223Z,24.65
2018-07-14T09:36:02.304Z,24.67
2018-07-14T09:38:32.822Z,24.73
2018-07-14T09:41:02.671Z,25.02
2018-07-14T09:43:33.142Z,25.31
2018-07-14T09:46:03.512Z,25.44
2018-07-14T09:48:34.518Z,25.40
2018-07-14T09:51:05.173Z,25.36
2018-07-14T09:53:35.756Z,25.30
2018-07-14T09:56:05.949Z,25.18
2018-07-14T09:58:36.161Z,25.21
2018-07-14T10:01:10.880Z,25.30
2018-07-14T10:03:41.470Z,25.40
2018-07-14T10:06:10.827Z,25.42
2018-07-14T10:08:41.289Z,25.42
2018-07-14T10:11:11.855Z,25.47
2018-07-14T10:13:42.055Z,25.40
2018-07-14T10:16:12.296Z,25.35
2018-07-14T10:18:43.021Z,25.33
2018-07-14T10:21:13.379Z,25.31
2018-07-14T10:23:44.701Z,25.34
2018-07-14T10:26:14.592Z,25.39
2018-07-14T10:28:45.199Z,25.59
2018-07-14T10:31:15.814Z,25.79
2018-07-14T10:33:46.521Z,25.91
2018-07-14T10:36:17.145Z,25.82
2018-07-14T10:38:47.618Z,25.73
2018-07-14T10:41:17.115Z,25.65
2018-07-14T10:43:46.275Z,25.60
2018-07-14T10:46:47.068Z,25.67
2018-07-14T10:49:17.873Z,25.78
2018-07-14T10:51:47.790Z,26.00
2018-07-14T10:54:18.757Z,26.10
2018-07-14T10:56:49.276Z,26.05
2018-07-14T10:59:18.488Z,25.93
2018-07-14T11:01:49.078Z,25.82
2018-07-14T11:04:18.902Z,25.79
2018-07-14T11:06:49.122Z,25.91
2018-07-14T11:09:19.326Z,26.18
2018-07-14T11:11:49.801Z,26.38
2018-07-14T11:14:20.175Z,26.44
2018-07-14T11:16:50.469Z,26.53
2018-07-14T11:19:21.829Z,26.57
2018-07-14T11:21:52.500Z,26.52
2018-07-14T11:24:23.006Z,26.45
2018-07-14T11:26:53.418Z,26.35
2018-07-14T11:29:24.067Z,26.38
2018-07-14T11:31:54.753Z,26.36
2018-07-14T11:34:23.808Z,26.40
2018-07-14T11:36:53.671Z,26.39
2018-07-14T11:39:24.147Z,26.31
2018-07-14T11:41:54.114Z,26.19
2018-07-14T11:44:24.056Z,25.95
2018-07-14T11:46:53.085Z,25.71
2018-07-14T11:49:23.219Z,25.45
2018-07-14T11:51:53.155Z,25.26
2018-07-14T11:54:23.697Z,25.00
2018-07-14T11:56:54.374Z,24.90
2018-07-14T11:59:24.920Z,24.81
2018-07-14T12:01:54.182Z,24.73
2018-07-14T12:04:23.837Z,24.66
2018-07-14T12:06:54.715Z,24.52
2018-07-14T12:09:23.938Z,24.25
2018-07-14T12:11:53.842Z,23.85
2018-07-14T12:14:24.205Z,23.40
2018-07-14T12:16:55.272Z,23.00
2018-07-14T12:19:25.548Z,22.91
2018-07-14T12:21:54.709Z,22.87
2018-07-14T12:24:24.246Z,22.93
2018-07-14T12:26:54.225Z,22.95
2018-07-14T12:29:23.902Z,22.90
2018-07-14T12:31:53.148Z,22.94
2018-07-14T12:34:23.664Z,23.09
2018-07-14T12:36:53.582Z,23.25
2018-07-14T12:39:23.683Z,23.62
2018-07-14T12:41:54.143Z,23.94
2018-07-14T12:44:23.900Z,24.31
2018-07-14T12:46:54.358Z,24.61
2018-07-14T12:49:24.504Z,24.96
2018-07-14T12:51:54.149Z,25.11
2018-07-14T12:54:23.203Z,25.23
2018-07-14T12:56:53.261Z,25.26
2018-07-14T12:59:23.162Z,25.19
2018-07-14T13:01:54.214Z,25.16
2018-07-14T13:04:23.290Z,25.34
2018-07-14T13:06:53.190Z,25.57
2018-07-14T13:09:23.583Z,25.66
2018-07-14T13:11:53.058Z,25.59
2018-07-14T13:14:22.828Z,25.59
2018-07-14T13:16:53.504Z,25.74
2018-07-14T13:19:22.985Z,25.74
2018-07-14T13:21:53.653Z,25.66
2018-07-14T13:24:24.128Z,25.72
2018-07-14T13:26:55.028Z,25.85
2018-07-14T13:29:25.420Z,25.94
2018-07-14T13:31:54.640Z,26.15
2018-07-14T13:34:23.731Z,26.34
2018-07-14T13:36:54.128Z,26.59
2018-07-14T13:39:25.135Z,26.80
2018-07-14T13:41:54.908Z,26.92
2018-07-14T13:44:26.278Z,27.08
2018-07-14T13:46:55.376Z,27.28
2018-07-14T13:49:25.891Z,27.41
2018-07-14T13:51:56.284Z,27.59
2018-07-14T13:54:25.489Z,27.67
2018-07-14T13:56:55.047Z,27.83
2018-07-14T13:59:24.901Z,27.82
2018-07-14T14:01:54.771Z,27.88
2018-07-14T14:04:23.831Z,27.97
2018-07-14T14:06:53.282Z,28.13
2018-07-14T14:09:23.160Z,28.58
2018-07-14T14:11:53.033Z,29.02
2018-07-14T14:14:22.144Z,29.35
2018-07-14T14:16:51.285Z,29.67
2018-07-14T14:19:21.021Z,30.13
2018-07-14T14:22:20.917Z,30.49
2018-07-14T14:24:50.529Z,30.71
2018-07-14T14:27:19.560Z,30.97
2018-07-14T14:29:49.216Z,31.29
2018-07-14T14:32:19.120Z,31.59
2018-07-14T14:34:48.614Z,31.93
2018-07-14T14:37:18.783Z,31.99
2018-07-14T14:39:48.039Z,32.09
2018-07-14T14:42:17.055Z,32.20
2018-07-14T14:44:46.941Z,32.28
2018-07-14T14:47:16.340Z,32.16
2018-07-14T14:49:45.396Z,31.82
2018-07-14T14:52:15.486Z,31.52
2018-07-14T14:54:45.484Z,31.14
2018-07-14T14:57:15.517Z,31.48
2018-07-14T14:59:45.069Z,31.90
2018-07-14T15:02:16.505Z,32.41
2018-07-14T15:04:46.521Z,32.66
2018-07-14T15:07:15.674Z,32.64
2018-07-14T15:09:45.920Z,32.65
2018-07-14T15:12:15.153Z,32.01
2018-07-14T15:14:45.019Z,31.59
2018-07-14T15:17:16.446Z,31.57
2018-07-14T15:19:46.554Z,31.26
2018-07-14T15:22:16.487Z,31.09
2018-07-14T15:24:46.543Z,30.69
2018-07-14T15:27:17.038Z,30.52
2018-07-14T15:29:46.657Z,30.14
2018-07-14T15:32:15.815Z,29.90
2018-07-14T15:34:45.193Z,29.41
2018-07-14T15:37:15.154Z,29.12
2018-07-14T15:39:44.198Z,28.94
2018-07-14T15:42:14.107Z,28.91
2018-07-14T15:44:44.060Z,28.89
2018-07-14T15:47:13.346Z,28.76
2018-07-14T15:49:43.330Z,28.70
2018-07-14T15:52:12.877Z,28.68
2018-07-14T15:54:42.784Z,28.54
2018-07-14T15:57:12.660Z,28.40
2018-07-14T15:59:41.711Z,29.09
2018-07-14T16:02:11.716Z,29.22
2018-07-14T16:04:41.609Z,29.04
2018-07-14T16:07:10.643Z,28.88
2018-07-14T16:09:39.823Z,28.86
2018-07-14T16:12:09.494Z,28.93
2018-07-14T16:14:38.532Z,28.72
2018-07-14T16:17:08.104Z,28.52
2018-07-14T16:19:37.618Z,28.17
2018-07-14T16:22:07.825Z,28.02
2018-07-14T16:24:36.856Z,27.89
2018-07-14T16:27:06.317Z,27.90
2018-07-14T16:29:36.178Z,27.98
2018-07-14T16:32:05.876Z,28.01
2018-07-14T16:34:35.805Z,27.95
2018-07-14T16:37:05.412Z,27.91
2018-07-14T16:39:34.451Z,27.87
2018-07-14T16:42:03.543Z,27.89
2018-07-14T16:44:33.364Z,27.78
2018-07-14T16:47:02.411Z,27.67
2018-07-14T16:49:32.212Z,27.61
2018-07-14T16:52:02.206Z,27.51
2018-07-14T16:54:31.711Z,27.39
2018-07-14T16:57:01.935Z,27.17
2018-07-14T16:59:31.011Z,27.04
2018-07-14T17:02:00.212Z,26.98
2018-07-14T17:05:00.107Z,26.96
2018-07-14T17:07:29.785Z,26.89
2018-07-14T17:09:59.745Z,26.80
2018-07-14T17:12:28.866Z,26.68
2018-07-14T17:14:57.926Z,26.57
2018-07-14T17:17:27.845Z,26.49
2018-07-14T17:19:57.109Z,26.45
2018-07-14T17:22:26.373Z,26.41
2018-07-14T17:24:56.160Z,26.42
2018-07-14T17:27:25.187Z,26.43
2018-07-14T17:29:54.334Z,26.42
2018-07-14T17:32:24.219Z,26.40
2018-07-14T17:34:53.257Z,26.39
2018-07-14T17:37:23.186Z,26.22
2018-07-14T17:39:53.082Z,26.10
2018-07-14T17:42:23.120Z,26.01
2018-07-14T17:44:52.723Z,25.97
2018-07-14T17:47:22.508Z,25.90
2018-07-14T17:49:52.620Z,25.89
2018-07-14T17:52:21.716Z,25.85
2018-07-14T17:54:51.056Z,25.76
2018-07-14T17:57:20.185Z,25.66
2018-07-14T17:59:49.301Z,25.55
2018-07-14T18:02:20.496Z,25.50
2018-07-14T18:04:51.238Z,25.42
2018-07-14T18:07:21.496Z,25.36
2018-07-14T18:09:53.087Z,25.27
2018-07-14T18:12:22.170Z,25.18
2018-07-14T18:14:52.125Z,25.12
2018-07-14T18:17:22.622Z,24.99
2018-07-14T18:19:51.868Z,24.87
2018-07-14T18:22:22.520Z,24.81
2018-07-14T18:24:52.602Z,24.77
2018-07-14T18:27:22.148Z,24.72
2018-07-14T18:29:53.646Z,24.63
2018-07-14T18:32:22.805Z,24.59
2018-07-14T18:34:53.635Z,24.53
2018-07-14T18:37:22.909Z,24.48
2018-07-14T18:39:52.834Z,24.38
2018-07-14T18:42:22.761Z,24.32
2018-07-14T18:44:52.976Z,24.24
2018-07-14T18:47:22.136Z,24.16
2018-07-14T18:49:52.066Z,24.11
2018-07-14T18:52:21.624Z,24.04
2018-07-14T18:54:52.483Z,23.99
2018-07-14T18:57:22.780Z,23.87
2018-07-14T18:59:52.650Z,23.77
2018-07-14T19:02:22.338Z,23.70
2018-07-14T19:04:52.324Z,23.65
2018-07-14T19:07:21.917Z,23.56
2018-07-14T19:09:52.549Z,23.50
2018-07-14T19:12:22.103Z,23.41
2018-07-14T19:14:52.867Z,23.28
2018-07-14T19:17:22.237Z,23.18
2018-07-14T19:19:53.247Z,23.11
2018-07-14T19:22:22.307Z,23.08
2018-07-14T19:24:52.435Z,23.01
2018-07-14T19:27:22.557Z,22.95
2018-07-14T19:29:53.169Z,22.90
2018-07-14T19:32:23.754Z,22.84
2018-07-14T19:34:55.766Z,22.77
2018-07-14T19:37:27.635Z,22.71
2018-07-14T19:39:58.224Z,22.67
2018-07-14T19:42:28.816Z,22.63
2018-07-14T19:44:58.144Z,22.56
2018-07-14T19:47:27.739Z,22.49
2018-07-14T19:49:57.200Z,22.43
2018-07-14T19:52:26.703Z,22.35
2018-07-14T19:54:57.021Z,22.29
2018-07-14T19:57:27.640Z,22.18
2018-07-14T19:59:58.016Z,22.09
2018-07-14T20:02:28.267Z,22.04
2018-07-14T20:04:57.468Z,21.98
2018-07-14T20:07:28.258Z,21.94
2018-07-14T20:09:58.463Z,21.89
2018-07-14T20:12:28.950Z,21.86
2018-07-14T20:14:58.938Z,21.83
2018-07-14T20:17:29.384Z,21.78
2018-07-14T20:19:59.447Z,21.75
2018-07-14T20:22:28.506Z,21.72
2018-07-14T20:24:57.959Z,21.67
2018-07-14T20:27:27.764Z,21.62
2018-07-14T20:29:58.313Z,21.54
2018-07-14T20:32:27.855Z,21.48
2018-07-14T20:34:57.295Z,21.43
2018-07-14T20:37:26.321Z,21.39
2018-07-14T20:39:55.525Z,21.37
2018-07-14T20:42:25.781Z,21.28
2018-07-14T20:44:56.060Z,21.18
2018-07-14T20:47:26.482Z,21.10
2018-07-14T20:49:56.832Z,21.06
2018-07-14T20:52:27.942Z,20.99
2018-07-14T20:54:58.421Z,20.92
2018-07-14T20:57:29.064Z,20.85
2018-07-14T20:59:58.972Z,20.81
2018-07-14T21:02:29.293Z,20.75
2018-07-14T21:05:00.062Z,20.68
2018-07-14T21:07:30.197Z,20.66
2018-07-14T21:10:01.039Z,20.61
2018-07-14T21:12:32.205Z,20.55
2018-07-14T21:15:02.527Z,20.49
2018-07-14T21:17:33.357Z,20.43
2018-07-14T21:20:03.694Z,20.38
2018-07-14T21:22:33.968Z,20.32
2018-07-14T21:25:04.236Z,20.25
2018-07-14T21:27:34.159Z,20.21
2018-07-14T21:30:03.372Z,20.17
2018-07-14T21:32:32.620Z,20.13
2018-07-14T21:35:01.807Z,20.05
2018-07-14T21:37:30.966Z,20.01
2018-07-14T21:40:01.618Z,19.96
2018-07-14T21:42:31.617Z,19.85
2018-07-14T21:45:02.062Z,19.79
2018-07-14T21:47:31.135Z,19.74
2018-07-14T21:50:01.749Z,19.67
2018-07-14T21:52:31.300Z,19.60
2018-07-14T21:55:01.913Z,19.55
2018-07-14T21:57:32.717Z,19.49
2018-07-14T22:00:03.161Z,19.45
2018-07-14T22:02:33.868Z,19.38
2018-07-14T22:05:04.161Z,19.35
2018-07-14T22:07:33.269Z,19.30
2018-07-14T22:10:04.139Z,19.22
2018-07-14T22:12:33.450Z,19.19
2018-07-14T22:15:03.039Z,19.08
2018-07-14T22:17:32.054Z,19.01
2018-07-14T22:20:01.186Z,18.94
2018-07-14T22:22:31.605Z,18.90
2018-07-14T22:25:00.990Z,18.88
2018-07-14T22:27:31.656Z,18.88
2018-07-14T22:30:00.893Z,18.86
2018-07-14T22:32:31.126Z,18.85
2018-07-14T22:35:00.509Z,18.84
2018-07-14T22:37:29.902Z,18.82
2018-07-14T22:39:59.243Z,18.76
2018-07-14T22:42:28.348Z,18.71
2018-07-14T22:44:57.444Z,18.68
2018-07-14T22:47:27.165Z,18.61
2018-07-14T22:49:56.502Z,18.59
2018-07-14T22:52:26.633Z,18.54
2018-07-14T22:54:55.926Z,18.50
2018-07-14T22:57:26.386Z,18.45
2018-07-14T22:59:55.770Z,18.38
2018-07-14T23:02:25.226Z,18.35
2018-07-14T23:04:54.508Z,18.30
2018-07-14T23:07:24.263Z,18.26
2018-07-14T23:09:53.413Z,18.20
2018-07-14T23:12:22.746Z,18.10
2018-07-14T23:14:51.829Z,18.03
2018-07-14T23:17:21.057Z,17.99
2018-07-14T23:19:50.373Z,17.95
2018-07-14T23:22:20.450Z,17.93
2018-07-14T23:24:50.925Z,17.91
2018-07-14T23:27:20.383Z,17.91
2018-07-14T23:29:50.300Z,17.89
2018-07-14T23:32:20.122Z,17.90
2018-07-14T23:34:50.417Z,17.92
2018-07-14T23:37:21.626Z,17.89
2018-07-14T23:39:52.026Z,17.86
2018-07-14T23:42:22.136Z,17.85
2018-07-14T23:44:52.947Z,17.82
2018-07-14T23:47:24.103Z,17.79
2018-07-14T23:49:54.806Z,17.76
2018-07-14T23:52:23.968Z,17.70
2018-07-14T23:54:54.857Z,17.67
2018-07-14T23:57:25.714Z,17.66
2018-07-14T23:59:56.155Z,17.56
